createdAt,value
2019-03-05T00:00:44.445Z,4.62
2019-03-05T00:03:11.039Z,3.85
2019-03-05T00:05:37.659Z,3.45
2019-03-05T00:08:04.186Z,3.52
2019-03-05T00:10:30.691Z,2.77
2019-03-05T00:12:57.270Z,2.58
2019-03-05T00:15:25.815Z,2.70
2019-03-05T00:17:52.844Z,2.55
2019-03-05T00:20:19.152Z,2.37
2019-03-05T00:22:46.144Z,2.10
2019-03-05T00:25:22.364Z,1.82
2019-03-05T00:28:12.629Z,2.10
2019-03-05T00:31:00.189Z,2.02
2019-03-05T00:33:53.276Z,2.05
2019-03-05T00:36:25.447Z,2.00
2019-03-05T00:39:32.795Z,1.70
2019-03-05T00:42:40.090Z,2.15
2019-03-05T00:45:44.242Z,1.82
2019-03-05T00:48:47.644Z,2.17
2019-03-05T00:51:52.231Z,1.62
2019-03-05T00:54:56.147Z,1.27
2019-03-05T00:57:37.646Z,1.42
2019-03-05T01:00:19.444Z,1.47
2019-03-05T01:03:03.643Z,1.40
2019-03-05T01:05:51.277Z,1.90
2019-03-05T01:08:19.696Z,1.60
2019-03-05T01:10:46.371Z,1.80
2019-03-05T01:13:13.200Z,2.17
2019-03-05T01:15:40.139Z,1.95
2019-03-05T01:18:07.009Z,2.40
2019-03-05T01:20:33.555Z,2.42
2019-03-05T01:22:59.962Z,2.52
2019-03-05T01:25:33.718Z,2.33
2019-03-05T01:28:00.318Z,1.90
2019-03-05T01:30:42.735Z,2.00
2019-03-05T01:33:13.516Z,2.10
2019-03-05T01:35:42.147Z,2.47
2019-03-05T01:38:08.472Z,2.65
2019-03-05T01:40:36.198Z,2.58
2019-03-05T01:43:02.753Z,2.47
2019-03-05T01:45:29.454Z,2.87
2019-03-05T01:47:56.203Z,3.35
2019-03-05T01:50:22.699Z,2.58
2019-03-05T01:52:49.148Z,2.27
2019-03-05T01:55:15.536Z,2.27
2019-03-05T01:57:42.279Z,2.30
2019-03-05T02:00:11.859Z,2.83
2019-03-05T02:02:39.103Z,3.30
2019-03-05T02:05:07.394Z,3.22
2019-03-05T02:07:34.031Z,3.27
2019-03-05T02:10:00.620Z,4.03
2019-03-05T02:12:27.138Z,4.90
2019-03-05T02:14:53.651Z,5.53
2019-03-05T02:17:20.451Z,4.95
2019-03-05T02:19:47.196Z,4.60
2019-03-05T02:22:22.470Z,3.98
2019-03-05T02:25:06.174Z,4.17
2019-03-05T02:27:49.663Z,3.37
2019-03-05T02:30:53.209Z,3.08
2019-03-05T02:33:39.985Z,3.20
2019-03-05T02:39:29.475Z,2.67
2019-03-05T02:42:02.782Z,3.83
2019-03-05T02:44:55.747Z,3.25
2019-03-05T02:47:59.617Z,2.75
2019-03-05T02:50:46.603Z,2.50
2019-03-05T02:53:34.109Z,2.20
2019-03-05T02:56:26.234Z,2.70
2019-03-05T02:58:52.476Z,2.85
2019-03-05T03:01:37.748Z,2.87
2019-03-05T03:04:09.609Z,2.72
2019-03-05T03:06:36.760Z,2.83
2019-03-05T03:09:31.944Z,3.17
2019-03-05T03:11:58.653Z,2.77
2019-03-05T03:14:25.218Z,3.00
2019-03-05T03:16:51.684Z,2.85
2019-03-05T03:19:18.116Z,2.83
2019-03-05T03:21:44.953Z,2.40
2019-03-05T03:24:11.451Z,2.10
2019-03-05T03:26:37.952Z,2.00
2019-03-05T03:29:04.535Z,2.47
2019-03-05T03:31:30.990Z,3.40
2019-03-05T03:33:57.480Z,3.98
2019-03-05T03:36:23.783Z,4.70
2019-03-05T03:38:50.438Z,4.45
2019-03-05T03:41:16.925Z,4.10
2019-03-05T03:43:43.318Z,5.80
2019-03-05T03:46:09.606Z,5.67
2019-03-05T03:48:36.120Z,5.80
2019-03-05T03:51:02.791Z,6.40
2019-03-05T03:53:29.090Z,6.55
2019-03-05T03:55:55.728Z,8.10
2019-03-05T03:58:22.601Z,6.15
2019-03-05T04:00:49.319Z,6.25
2019-03-05T04:03:16.023Z,6.08
2019-03-05T04:05:42.446Z,7.58
2019-03-05T04:08:10.465Z,7.40
2019-03-05T04:10:37.343Z,7.05
2019-03-05T04:13:04.040Z,6.65
2019-03-05T04:15:30.636Z,5.92
2019-03-05T04:17:57.213Z,6.20
2019-03-05T04:20:25.636Z,6.80
2019-03-05T04:22:51.960Z,6.83
2019-03-05T04:25:18.372Z,5.92
2019-03-05T04:27:44.804Z,5.30
2019-03-05T04:30:13.024Z,6.12
2019-03-05T04:32:39.431Z,5.60
2019-03-05T04:35:10.303Z,6.60
2019-03-05T04:37:36.602Z,5.70
2019-03-05T04:40:06.859Z,5.50
2019-03-05T04:42:33.413Z,8.13
2019-03-05T04:45:01.725Z,7.85
2019-03-05T04:47:28.283Z,6.37
2019-03-05T04:49:56.679Z,6.45
2019-03-05T04:52:23.707Z,5.47
2019-03-05T04:54:50.403Z,5.42
2019-03-05T04:57:17.139Z,6.80
2019-03-05T04:59:43.645Z,6.12
2019-03-05T05:02:10.365Z,6.60
2019-03-05T05:04:36.999Z,5.35
2019-03-05T05:07:03.720Z,5.35
2019-03-05T05:09:30.284Z,5.75
2019-03-05T05:11:56.748Z,5.12
2019-03-05T05:14:23.273Z,5.28
2019-03-05T05:16:49.677Z,6.15
2019-03-05T05:19:15.995Z,5.17
2019-03-05T05:21:42.421Z,5.03
2019-03-05T05:24:08.742Z,4.97
2019-03-05T05:26:35.134Z,5.60
2019-03-05T05:29:01.579Z,4.53
2019-03-05T05:31:28.123Z,5.28
2019-03-05T05:33:54.435Z,5.00
2019-03-05T05:36:20.759Z,5.62
2019-03-05T05:38:47.071Z,4.85
2019-03-05T05:41:13.603Z,4.40
2019-03-05T05:43:39.898Z,4.83
2019-03-05T05:46:06.403Z,5.67
2019-03-05T05:48:32.693Z,3.22
2019-03-05T05:50:59.067Z,4.00
2019-03-05T05:53:25.808Z,5.37
2019-03-05T05:55:52.227Z,5.28
2019-03-05T05:58:18.581Z,5.00
2019-03-05T06:00:53.246Z,5.00
2019-03-05T06:03:19.934Z,5.60
2019-03-05T06:05:46.468Z,4.72
2019-03-05T06:08:12.959Z,4.40
2019-03-05T06:10:40.452Z,4.97
2019-03-05T06:13:07.289Z,4.47
2019-03-05T06:15:33.927Z,4.58
2019-03-05T06:18:00.432Z,5.33
2019-03-05T06:20:26.910Z,4.83
2019-03-05T06:22:53.446Z,4.65
2019-03-05T06:25:20.104Z,4.25
2019-03-05T06:27:46.624Z,3.98
2019-03-05T06:30:24.622Z,4.10
2019-03-05T06:32:51.410Z,4.15
2019-03-05T06:35:18.108Z,4.22
2019-03-05T06:37:44.679Z,4.10
2019-03-05T06:40:17.975Z,5.25
2019-03-05T06:42:44.368Z,3.50
2019-03-05T06:45:17.053Z,3.47
2019-03-05T06:47:43.447Z,3.30
2019-03-05T06:50:13.039Z,3.10
2019-03-05T06:52:39.465Z,3.47
2019-03-05T06:55:12.322Z,3.33
2019-03-05T06:57:39.047Z,3.05
2019-03-05T07:00:19.044Z,3.20
2019-03-05T07:02:45.346Z,3.12
2019-03-05T07:06:08.107Z,3.20
2019-03-05T07:08:37.435Z,2.87
2019-03-05T07:11:35.936Z,3.10
2019-03-05T07:14:26.260Z,2.90
2019-03-05T07:17:07.432Z,2.70
2019-03-05T07:19:42.819Z,3.00
2019-03-05T07:22:20.771Z,2.70
2019-03-05T07:24:47.712Z,3.20
2019-03-05T07:27:22.495Z,2.80
2019-03-05T07:29:48.809Z,3.10
2019-03-05T07:32:15.272Z,3.47
2019-03-05T07:34:43.897Z,3.00
2019-03-05T07:37:11.258Z,3.10
2019-03-05T07:39:37.826Z,3.30
2019-03-05T07:42:04.331Z,3.17
2019-03-05T07:44:30.837Z,3.33
2019-03-05T07:46:57.295Z,2.98
2019-03-05T07:49:23.680Z,3.02
2019-03-05T07:51:50.076Z,3.33
2019-03-05T07:54:16.717Z,3.15
2019-03-05T07:56:43.333Z,2.75
2019-03-05T07:59:09.864Z,2.72
2019-03-05T08:01:36.590Z,4.20
2019-03-05T08:04:03.291Z,3.50
2019-03-05T08:06:29.715Z,3.80
2019-03-05T08:09:35.122Z,3.60
2019-03-05T08:12:22.844Z,2.80
2019-03-05T08:14:55.011Z,2.50
2019-03-05T08:17:21.898Z,2.50
2019-03-05T08:19:48.297Z,2.58
2019-03-05T08:22:15.137Z,4.40
2019-03-05T08:24:41.663Z,3.15
2019-03-05T08:27:08.621Z,3.72
2019-03-05T08:29:34.951Z,3.10
2019-03-05T08:32:01.528Z,3.95
2019-03-05T08:34:27.938Z,4.47
2019-03-05T08:36:54.599Z,3.27
2019-03-05T08:39:20.892Z,2.33
2019-03-05T08:41:47.340Z,2.27
2019-03-05T08:44:13.837Z,2.40
2019-03-05T08:46:40.391Z,2.52
2019-03-05T08:49:06.894Z,2.25
2019-03-05T08:51:33.243Z,2.42
2019-03-05T08:53:59.649Z,1.95
2019-03-05T08:56:26.043Z,1.80
2019-03-05T08:58:52.475Z,1.80
2019-03-05T09:01:18.979Z,2.20
2019-03-05T09:03:45.628Z,3.40
2019-03-05T09:06:12.015Z,2.25
2019-03-05T09:08:38.659Z,2.22
2019-03-05T09:11:05.290Z,2.45
2019-03-05T09:13:33.154Z,3.25
2019-03-05T09:15:59.763Z,2.33
2019-03-05T09:18:26.476Z,2.05
2019-03-05T09:20:52.952Z,1.50
2019-03-05T09:23:19.266Z,2.50
2019-03-05T09:25:45.879Z,2.10
2019-03-05T09:28:12.301Z,2.22
2019-03-05T09:30:38.756Z,2.50
2019-03-05T09:33:05.152Z,1.70
2019-03-05T09:35:31.904Z,1.30
2019-03-05T09:37:58.543Z,1.98
2019-03-05T09:40:27.995Z,2.08
2019-03-05T09:42:55.310Z,3.50
2019-03-05T09:45:21.982Z,2.45
2019-03-05T09:47:48.573Z,2.33
2019-03-05T09:50:17.094Z,2.72
2019-03-05T09:52:54.180Z,2.30
2019-03-05T09:55:16.361Z,1.67
2019-03-05T09:57:42.807Z,2.92
2019-03-05T10:00:19.004Z,2.12
2019-03-05T10:02:45.775Z,2.58
2019-03-05T10:05:14.918Z,2.35
2019-03-05T10:07:41.612Z,4.60
2019-03-05T10:10:19.353Z,2.17
2019-03-05T10:12:45.880Z,3.70
2019-03-05T10:15:18.661Z,3.62
2019-03-05T10:17:45.050Z,2.52
2019-03-05T10:20:21.959Z,2.80
2019-03-05T10:22:48.956Z,3.00
2019-03-05T10:25:18.337Z,2.27
2019-03-05T10:27:44.943Z,3.60
2019-03-05T10:30:24.722Z,2.85
2019-03-05T10:35:14.583Z,2.45
2019-03-05T10:37:41.231Z,2.37
2019-03-05T10:40:12.596Z,3.00
2019-03-05T10:42:41.196Z,2.60
2019-03-05T10:45:12.739Z,2.42
2019-03-05T10:47:39.203Z,3.77
2019-03-05T10:50:15.292Z,4.95
2019-03-05T10:52:39.387Z,3.10
2019-03-05T10:55:09.595Z,3.92
2019-03-05T10:57:35.886Z,2.50
2019-03-05T11:00:06.832Z,2.77
2019-03-05T11:02:33.225Z,2.70
2019-03-05T11:04:59.768Z,2.65
2019-03-05T11:07:26.064Z,2.30
2019-03-05T11:09:52.477Z,2.85
2019-03-05T11:12:19.105Z,2.80
2019-03-05T11:14:45.680Z,2.92
2019-03-05T11:17:12.168Z,2.40
2019-03-05T11:19:38.698Z,14.75
2019-03-05T11:22:05.490Z,3.77
2019-03-05T11:24:32.505Z,3.00
2019-03-05T11:26:58.815Z,4.40
2019-03-05T11:29:25.393Z,3.83
2019-03-05T11:31:51.779Z,4.15
2019-03-05T11:34:18.591Z,2.98
2019-03-05T11:36:45.102Z,3.67
2019-03-05T11:39:11.608Z,14.73
2019-03-05T11:41:38.198Z,7.47
2019-03-05T11:44:05.000Z,10.45
2019-03-05T11:46:31.623Z,13.55
2019-03-05T11:48:58.218Z,9.63
2019-03-05T11:51:24.749Z,11.28
2019-03-05T11:53:51.154Z,7.00
2019-03-05T11:56:17.797Z,2.75
2019-03-05T11:58:44.363Z,7.00
2019-03-05T12:01:13.235Z,4.10
2019-03-05T12:03:39.749Z,3.05
2019-03-05T12:06:06.213Z,3.02
2019-03-05T12:08:32.940Z,2.67
2019-03-05T12:10:59.374Z,2.85
2019-03-05T12:13:26.083Z,2.30
2019-03-05T12:15:52.479Z,2.60
2019-03-05T12:18:19.145Z,2.50
2019-03-05T12:20:45.443Z,2.12
2019-03-05T12:23:12.096Z,2.45
2019-03-05T12:25:39.823Z,3.10
2019-03-05T12:28:10.659Z,2.83
2019-03-05T12:30:36.382Z,2.37
2019-03-05T12:33:02.977Z,2.83
2019-03-05T12:35:29.657Z,2.60
2019-03-05T12:37:56.538Z,2.67
2019-03-05T12:40:24.961Z,2.30
2019-03-05T12:42:51.787Z,2.98
2019-03-05T12:45:23.563Z,3.60
2019-03-05T12:47:50.792Z,4.03
2019-03-05T12:50:22.361Z,2.77
2019-03-05T12:52:50.178Z,6.30
2019-03-05T12:55:17.606Z,4.80
2019-03-05T12:57:44.292Z,2.50
2019-03-05T13:00:28.172Z,4.58
2019-03-05T13:02:55.835Z,5.47
2019-03-05T13:05:22.590Z,4.05
2019-03-05T13:07:52.620Z,3.35
2019-03-05T13:10:27.130Z,3.22
2019-03-05T13:17:55.697Z,2.60
2019-03-05T13:20:22.606Z,2.30
2019-03-05T13:22:50.511Z,2.47
2019-03-05T13:25:18.611Z,2.77
2019-03-05T13:27:45.465Z,2.08
2019-03-05T13:30:27.018Z,2.77
2019-03-05T13:32:59.078Z,2.77
2019-03-05T13:35:25.525Z,2.72
2019-03-05T13:38:11.244Z,2.50
2019-03-05T13:40:40.638Z,3.02
2019-03-05T13:43:09.354Z,2.47
2019-03-05T13:45:37.904Z,2.80
2019-03-05T13:48:19.667Z,2.90
2019-03-05T13:51:19.561Z,2.27
2019-03-05T13:54:05.859Z,1.90
2019-03-05T13:56:44.604Z,3.20
2019-03-05T13:59:36.568Z,3.10
2019-03-05T14:02:05.911Z,3.90
2019-03-05T14:04:58.421Z,3.00
2019-03-05T14:07:36.858Z,2.40
2019-03-05T14:10:04.539Z,3.22
2019-03-05T14:12:30.964Z,2.30
2019-03-05T14:14:57.884Z,4.20
2019-03-05T14:17:25.741Z,3.58
2019-03-05T14:19:52.474Z,2.17
2019-03-05T14:22:19.251Z,3.58
2019-03-05T14:24:45.909Z,3.40
2019-03-05T14:27:12.838Z,4.20
2019-03-05T14:29:39.562Z,3.90
2019-03-05T14:32:07.103Z,3.70
2019-03-05T14:34:33.606Z,2.47
2019-03-05T14:37:00.214Z,3.33
2019-03-05T14:39:31.807Z,2.50
2019-03-05T14:41:59.393Z,2.70
2019-03-05T14:44:25.987Z,3.60
2019-03-05T14:46:55.553Z,3.10
2019-03-05T14:49:22.396Z,1.75
2019-03-05T14:51:48.995Z,3.00
2019-03-05T14:54:15.806Z,2.20
2019-03-05T14:56:42.396Z,1.90
2019-03-05T14:59:09.041Z,2.90
2019-03-05T15:01:35.698Z,3.00
2019-03-05T15:04:02.404Z,2.70
2019-03-05T15:06:29.023Z,5.42
2019-03-05T15:08:55.456Z,7.37
2019-03-05T15:11:22.215Z,6.80
2019-03-05T15:13:49.471Z,10.40
2019-03-05T15:16:16.099Z,8.33
2019-03-05T15:18:42.741Z,2.58
2019-03-05T15:21:09.246Z,2.00
2019-03-05T15:23:35.635Z,1.92
2019-03-05T15:26:02.342Z,3.90
2019-03-05T15:28:28.845Z,6.60
2019-03-05T15:30:55.296Z,7.72
2019-03-05T15:33:21.686Z,9.68
2019-03-05T15:35:48.293Z,8.53
2019-03-05T15:38:14.980Z,10.28
2019-03-05T15:40:41.434Z,12.18
2019-03-05T15:43:08.024Z,15.45
2019-03-05T15:45:34.669Z,6.08
2019-03-05T15:48:01.078Z,7.05
2019-03-05T15:50:28.952Z,8.25
2019-03-05T15:52:55.491Z,6.35
2019-03-05T15:55:23.269Z,4.28
2019-03-05T15:57:49.771Z,10.82
2019-03-05T16:00:29.033Z,5.90
2019-03-05T16:02:55.467Z,5.20
2019-03-05T16:05:22.908Z,5.47
2019-03-05T16:07:49.700Z,4.15
2019-03-05T16:10:17.105Z,3.35
2019-03-05T16:12:45.081Z,5.30
2019-03-05T16:15:13.714Z,9.70
2019-03-05T16:17:40.307Z,7.53
2019-03-05T16:20:13.155Z,6.58
2019-03-05T16:22:39.791Z,5.92
2019-03-05T16:25:13.729Z,4.15
2019-03-05T16:27:41.576Z,3.75
2019-03-05T16:30:38.213Z,4.67
2019-03-05T16:33:12.488Z,3.98
2019-03-05T16:35:55.914Z,3.98
2019-03-05T16:38:40.871Z,4.97
2019-03-05T16:41:26.115Z,4.28
2019-03-05T16:44:03.459Z,5.45
2019-03-05T16:46:30.123Z,6.70
2019-03-05T16:49:15.287Z,6.17
2019-03-05T16:51:54.430Z,10.58
2019-03-05T16:54:27.118Z,24.00
2019-03-05T16:56:56.146Z,22.20
2019-03-05T16:59:27.393Z,13.25
2019-03-05T17:02:00.110Z,10.53
2019-03-05T17:04:28.505Z,8.38
2019-03-05T17:07:17.021Z,5.87
2019-03-05T17:09:45.261Z,11.30
2019-03-05T17:12:11.785Z,13.50
2019-03-05T17:14:38.262Z,9.80
2019-03-05T17:17:05.078Z,8.00
2019-03-05T17:19:31.601Z,8.98
2019-03-05T17:21:58.327Z,5.72
2019-03-05T17:24:25.006Z,5.55
2019-03-05T17:26:51.479Z,5.55
2019-03-05T17:29:17.928Z,5.62
2019-03-05T17:31:44.692Z,4.33
2019-03-05T17:34:11.427Z,7.03
2019-03-05T17:36:38.142Z,4.72
2019-03-05T17:39:06.335Z,7.33
2019-03-05T17:41:32.834Z,8.95
2019-03-05T17:43:59.160Z,4.33
2019-03-05T17:46:25.581Z,5.33
2019-03-05T17:48:51.916Z,6.30
2019-03-05T17:51:18.346Z,7.15
2019-03-05T17:53:44.799Z,6.97
2019-03-05T17:56:11.414Z,7.95
2019-03-05T17:58:37.811Z,9.43
2019-03-05T18:01:06.388Z,7.87
2019-03-05T18:03:32.708Z,9.13
2019-03-05T18:05:59.218Z,9.18
2019-03-05T18:08:25.717Z,8.40
2019-03-05T18:10:52.313Z,9.13
2019-03-05T18:13:18.733Z,9.15
2019-03-05T18:15:45.335Z,7.20
2019-03-05T18:18:11.809Z,9.73
2019-03-05T18:20:38.435Z,9.55
2019-03-05T18:23:05.019Z,9.68
2019-03-05T18:25:31.542Z,11.12
2019-03-05T18:27:58.463Z,9.45
2019-03-05T18:30:28.566Z,7.03
2019-03-05T18:32:55.548Z,5.33
2019-03-05T18:35:22.045Z,5.87
2019-03-05T18:37:48.671Z,5.92
2019-03-05T18:40:17.262Z,6.50
2019-03-05T18:42:44.188Z,5.87
2019-03-05T18:45:14.996Z,6.53
2019-03-05T18:47:41.292Z,6.25
2019-03-05T18:50:13.376Z,5.78
2019-03-05T18:52:39.672Z,6.03
2019-03-05T18:55:14.485Z,5.20
2019-03-05T18:57:41.523Z,6.57
2019-03-05T19:00:18.569Z,7.62
2019-03-05T19:02:45.058Z,4.20
2019-03-05T19:05:14.352Z,6.45
2019-03-05T19:07:41.065Z,6.67
2019-03-05T19:10:15.161Z,11.05
2019-03-05T19:12:41.693Z,13.90
2019-03-05T19:15:13.259Z,18.23
2019-03-05T19:17:39.862Z,12.43
2019-03-05T19:20:13.832Z,13.18
2019-03-05T19:22:40.285Z,7.45
2019-03-05T19:25:12.436Z,11.18
2019-03-05T19:27:38.755Z,13.45
2019-03-05T19:30:19.432Z,8.85
2019-03-05T19:32:46.261Z,14.10
2019-03-05T19:35:13.086Z,20.37
2019-03-05T19:37:39.603Z,18.70
2019-03-05T19:40:14.004Z,25.52
2019-03-05T19:42:40.432Z,22.32
2019-03-05T19:45:11.049Z,14.47
2019-03-05T19:47:37.600Z,22.40
2019-03-05T19:50:14.875Z,14.28
2019-03-05T19:52:41.625Z,22.55
2019-03-05T19:55:11.624Z,15.35
2019-03-05T19:57:38.416Z,13.43
2019-03-05T20:00:10.400Z,16.40
2019-03-05T20:02:36.804Z,13.40
2019-03-05T20:05:05.667Z,9.85
2019-03-05T20:07:32.409Z,7.47
2019-03-05T20:09:59.147Z,5.58
2019-03-05T20:12:25.653Z,5.85
2019-03-05T20:14:52.061Z,10.23
2019-03-05T20:17:18.534Z,4.42
2019-03-05T20:19:45.085Z,6.40
2019-03-05T20:22:12.197Z,6.97
2019-03-05T20:24:38.726Z,4.35
2019-03-05T20:27:05.031Z,9.53
2019-03-05T20:29:31.847Z,16.37
2019-03-05T20:31:58.239Z,10.35
2019-03-05T20:34:24.589Z,10.63
2019-03-05T20:36:51.350Z,13.40
2019-03-05T20:39:17.924Z,10.55
2019-03-05T20:41:44.278Z,9.18
2019-03-05T20:44:10.766Z,13.32
2019-03-05T20:46:37.061Z,9.48
2019-03-05T20:49:03.820Z,17.48
2019-03-05T20:51:30.236Z,5.40
2019-03-05T20:53:56.663Z,6.25
2019-03-05T20:56:23.404Z,3.15
2019-03-05T20:58:49.956Z,3.62
2019-03-05T21:01:16.459Z,2.42
2019-03-05T21:03:42.984Z,4.35
2019-03-05T21:06:09.606Z,4.85
2019-03-05T21:08:36.395Z,6.00
2019-03-05T21:11:03.301Z,6.17
2019-03-05T21:13:29.998Z,6.65
2019-03-05T21:15:56.535Z,5.50
2019-03-05T21:18:23.411Z,6.60
2019-03-05T21:20:49.797Z,7.03
2019-03-05T21:23:16.745Z,7.40
2019-03-05T21:25:43.707Z,5.55
2019-03-05T21:28:10.371Z,4.17
2019-03-05T21:30:36.661Z,4.60
2019-03-05T21:33:03.164Z,6.58
2019-03-05T21:35:29.668Z,7.08
2019-03-05T21:37:57.779Z,6.30
2019-03-05T21:40:27.920Z,4.37
2019-03-05T21:42:54.559Z,5.03
2019-03-05T21:45:35.835Z,5.78
2019-03-05T21:48:03.703Z,5.50
2019-03-05T21:50:30.116Z,8.88
2019-03-05T21:52:56.548Z,10.35
2019-03-05T21:55:23.038Z,7.35
2019-03-05T21:57:49.522Z,3.65
2019-03-05T22:00:23.208Z,3.20
2019-03-05T22:02:50.293Z,8.95
2019-03-05T22:05:16.765Z,4.35
2019-03-05T22:07:43.303Z,7.22
2019-03-05T22:10:16.659Z,6.25
2019-03-05T22:12:43.121Z,3.35
2019-03-05T22:15:20.858Z,3.15
2019-03-05T22:17:48.540Z,4.10
2019-03-05T22:20:17.217Z,3.10
2019-03-05T22:22:43.718Z,3.35
2019-03-05T22:25:18.319Z,3.35
2019-03-05T22:27:44.984Z,3.80
2019-03-05T22:30:18.502Z,4.42
2019-03-05T22:32:44.954Z,4.87
2019-03-05T22:35:14.031Z,9.28
2019-03-05T22:37:40.954Z,7.35
2019-03-05T22:40:11.287Z,6.03
2019-03-05T22:42:37.961Z,4.22
2019-03-05T22:45:09.853Z,4.58
2019-03-05T22:47:36.358Z,6.10
2019-03-05T22:50:07.056Z,4.03
2019-03-05T22:52:33.373Z,4.30
2019-03-05T22:54:59.716Z,4.30
2019-03-05T22:57:26.200Z,6.70
2019-03-05T22:59:52.621Z,6.83
2019-03-05T23:02:18.976Z,6.20
2019-03-05T23:04:45.574Z,5.55
2019-03-05T23:07:13.539Z,6.92
2019-03-05T23:09:40.168Z,7.30
2019-03-05T23:12:06.750Z,10.90
2019-03-05T23:14:33.142Z,6.08
2019-03-05T23:16:59.626Z,7.83
2019-03-05T23:19:27.024Z,6.60
2019-03-05T23:21:53.520Z,5.12
2019-03-05T23:24:20.230Z,5.70
2019-03-05T23:26:46.963Z,5.92
2019-03-05T23:29:14.178Z,6.60
2019-03-05T23:31:40.715Z,5.67
2019-03-05T23:34:07.288Z,7.92
2019-03-05T23:36:33.572Z,7.60
2019-03-05T23:39:00.242Z,5.25
2019-03-05T23:41:26.764Z,5.30
2019-03-05T23:43:53.283Z,4.83
2019-03-05T23:46:19.855Z,4.85
2019-03-05T23:48:46.637Z,4.37
2019-03-05T23:51:12.958Z,5.55
2019-03-05T23:53:39.265Z,6.97
2019-03-05T23:56:06.005Z,5.58
2019-03-05T23:58:32.397Z,11.25
